Nearby METAR Reports

 

KSYN - Stanton, Minnesota, USA
Distance from station: NW 20mi, 33km
Updated: Sat, 20-Jan-2018 6:55am CST
Clear
Clear
 Wind from calm
Wind: Calm
Temperature: 21°F , -6°C
Dew Point: 19°F , -7°C
Humidity: 93%
Barometer: 29.82 inHg , 1009.8 hPa
Clouds: Clear
Visibility: 10 miles , 16 km
2018/01/20 12:55 KSYN 201255Z AUTO 00000KT 10SM CLR M06/M07 A2982 RMK AO2 T10621075
KTOB - Dodge Center, Minnesota, USA
Distance from station: SSW 21mi, 34km
Updated: Sat, 20-Jan-2018 6:55am CST
Clear
Clear
 Wind from calm
Wind: Calm
Temperature: 23°F , -5°C
Dew Point: 21°F , -6°C
Humidity: 93%
Barometer: 29.82 inHg , 1009.8 hPa
Clouds: Clear
Visibility: 7 miles , 11 km
2018/01/20 12:55 KTOB 201255Z AUTO 00000KT 7SM CLR M05/M06 A2982 RMK AO2
K9MN - St Mary Hospital, Minnesota, USA
Distance from station: SSE 22mi, 35km
Updated: Sat, 20-Jan-2018 6:55am CST
Clear
Clear
 Wind from WNW
Wind: WNW 3 mph , 6 km/h
Temperature: 30°F , -1°C
Dew Point: 28°F , -2°C
Humidity: 93%
Barometer: 29.82 inHg , 1009.8 hPa
Clouds: Clear
Visibility: 10 miles , 16 km
2018/01/20 12:55 K9MN 201255Z AUTO 29003KT 10SM CLR M01/M02 A2982 RMK AO1 T10131019
 
KRGK - Red Wing, Minnesota, USA
Distance from station: NNE 22mi, 35km
Updated: Sat, 20-Jan-2018 6:55am CST
Clear
Clear
 Wind from calm
Wind: Calm
Temperature: 21°F , -6°C
Dew Point: 19°F , -7°C
Humidity: 93%
Barometer: 29.83 inHg , 1010.2 hPa
Clouds: Clear
Visibility: 7 miles , 11 km
2018/01/20 12:55 KRGK 201255Z AUTO 00000KT 7SM CLR M06/M07 A2983 RMK AO2
KRST - Rochester, Minnesota, USA
Distance from station: SSE 29mi, 47km
Updated: Sat, 20-Jan-2018 6:54am CST
Clear
Clear
 Wind from WNW
Wind: WNW 6 mph , 9 km/h
Temperature: 28°F , -2°C
Wind Chill: 21°F , -6°C
Dew Point: 28°F , -2°C
Humidity: 100%
Barometer: 29.81 inHg , 1009.5 hPa
Clouds: Clear
Visibility: 10 miles , 16 km
2018/01/20 12:54 KRST 201254Z 30005KT 10SM CLR M02/M02 A2981 RMK AO2 SLP111 T10221022
KOWA - Owatonna, Minnesota, USA
Distance from station: WSW 31mi, 50km
Updated: Sat, 20-Jan-2018 6:53am CST
Freezing fog, Overcast
Freezing fog, Overcast
 Wind from calm
Wind: Calm
Temperature: 21°F , -6°C
Dew Point: 21°F , -6°C
Humidity: 100%
Barometer: 29.81 inHg , 1009.5 hPa
Summary: Freezing Fog
Clouds: Overcast
Visibility: 1/2 mile , 2 km
Cloud details: Overcast 100 ft
2018/01/20 12:53 KOWA 201253Z AUTO 00000KT 1/2SM FZFG OVC001 M06/M06 A2981 RMK AO2
 
KFBL - Faribault Muni, Minnesota, USA
Distance from station: W 32mi, 51km
Updated: Sat, 20-Jan-2018 6:55am CST
Mist, Clear
Mist, Clear
 Wind from calm
Wind: Calm
Temperature: 19°F , -7°C
Dew Point: 18°F , -8°C
Humidity: 93%
Barometer: 29.82 inHg , 1009.8 hPa
Summary: Mist
Clouds: Clear
Visibility: 5 miles , 8 km
2018/01/20 12:55 KFBL 201255Z AUTO 00000KT 5SM BR CLR M07/M08 A2982 RMK AO2
KSGS - South St Paul, Minnesota, USA
Distance from station: NNW 43mi, 69km
Updated: Sat, 20-Jan-2018 6:55am CST
Clear
Clear
 Wind from calm
Wind: Calm
Temperature: 25°F , -4°C
Dew Point: 25°F , -4°C
Humidity: 100%
Barometer: 29.83 inHg , 1010.2 hPa
Clouds: Clear
Visibility: 10 miles , 16 km
2018/01/20 12:55 KSGS 201255Z AUTO 00000KT 10SM CLR M04/M04 A2983 RMK AO2 T10391041
KAUM - Austin Muni, Minnesota, USA
Distance from station: SSW 46mi, 73km
Updated: Sat, 20-Jan-2018 6:46am CST
Clear
Clear
 Wind from calm
Wind: Calm
Temperature: 27°F , -3°C
Dew Point: 27°F , -3°C
Humidity: 100%
Barometer: 29.82 inHg , 1009.8 hPa
Clouds: Clear
Visibility: 7 miles , 11 km
2018/01/20 12:46 KAUM 201246Z AUTO 00000KT 7SM CLR M03/M03 A2982 RMK AO2
 
KACQ - Waseca, Minnesota, USA
Distance from station: WSW 46mi, 75km
Updated: Sat, 20-Jan-2018 6:55am CST
Mist, Overcast
Mist, Overcast
 Wind from E
Wind: E 3 mph , 6 km/h
Temperature: 21°F , -6°C
Dew Point: 21°F , -6°C
Humidity: 100%
Barometer: 29.82 inHg , 1009.8 hPa
Summary: Mist
Clouds: Overcast
Visibility: 1 3/4 miles , 5 km
Cloud details: Overcast 700 ft
2018/01/20 12:55 KACQ 201255Z AUTO 09003KT 1 3/4SM BR VV007 M06/M06 A2982 RMK AO2 VIS 1/2V3
KSTP - St. Paul, Minnesota, USA
Distance from station: NNW 47mi, 76km
Updated: Sat, 20-Jan-2018 6:53am CST
Clear
Clear
 Wind from calm
Wind: Calm
Temperature: 25°F , -4°C
Dew Point: 23°F , -5°C
Humidity: 93%
Barometer: 29.84 inHg , 1010.5 hPa
Clouds: Clear
Visibility: 10 miles , 16 km
2018/01/20 12:53 KSTP 201253Z 00000KT 10SM CLR M04/M05 A2984 RMK AO2 SLP110 T10391050 $
KMSP - Minneapolis, Minnesota, USA
Distance from station: NW 49mi, 78km
Updated: Sat, 20-Jan-2018 6:53am CST
Mostly cloudy
Mostly cloudy
 Wind from calm
Wind: Calm
Temperature: 27°F , -3°C
Dew Point: 27°F , -3°C
Humidity: 100%
Barometer: 29.83 inHg , 1010.2 hPa
Clouds: Mostly cloudy
Visibility: 10 miles , 16 km
Cloud details: Mostly cloudy 13000 ft
Mostly cloudy 17000 ft
2018/01/20 12:53 KMSP 201253Z 00000KT 10SM BKN130 BKN170 M03/M03 A2983 RMK AO2 SLP109 T10281033